createdAt,value
2023-02-11T01:58:20.533Z,27.03
2023-02-11T02:00:20.525Z,27.86
2023-02-11T02:01:20.556Z,27.36
2023-02-11T02:02:20.517Z,27.81
2023-02-11T02:03:20.620Z,27.58
2023-02-11T02:04:20.596Z,30.50
2023-02-11T02:05:20.508Z,30.49
2023-02-11T02:06:20.505Z,31.10
2023-02-11T02:07:20.497Z,31.69
2023-02-11T02:08:20.518Z,35.12
2023-02-11T02:09:20.487Z,30.11
2023-02-11T02:10:21.307Z,28.60
2023-02-11T02:11:20.489Z,29.52
2023-02-11T02:12:20.478Z,25.00
2023-02-11T02:13:20.488Z,27.90
2023-02-11T02:14:20.474Z,30.95
2023-02-11T02:15:20.486Z,35.32
2023-02-11T02:16:20.521Z,32.03
2023-02-11T02:17:20.463Z,33.92
2023-02-11T02:18:20.473Z,32.39
2023-02-11T02:19:20.472Z,30.57
2023-02-11T02:20:20.461Z,31.30
2023-02-11T02:21:20.472Z,28.19
2023-02-11T02:22:20.457Z,28.34
2023-02-11T02:23:20.455Z,28.78
2023-02-11T02:24:20.463Z,25.80
2023-02-11T02:25:20.454Z,28.23
2023-02-11T02:26:20.444Z,29.46
2023-02-11T02:27:20.451Z,30.88
2023-02-11T02:28:20.489Z,30.74
2023-02-11T02:29:21.311Z,31.92
2023-02-11T02:30:20.517Z,29.82
2023-02-11T02:31:21.333Z,32.72
2023-02-11T02:32:20.444Z,31.45
2023-02-11T02:33:23.582Z,30.05
2023-02-11T02:34:20.420Z,31.31
2023-02-11T02:35:20.381Z,27.15
2023-02-11T02:36:20.360Z,30.28
2023-02-11T02:37:20.318Z,28.39
2023-02-11T02:38:20.297Z,29.62
2023-02-11T02:39:20.269Z,30.45
2023-02-11T02:40:20.230Z,26.78
2023-02-11T02:41:20.199Z,29.30
2023-02-11T02:42:20.227Z,29.37
2023-02-11T02:43:20.124Z,28.55
2023-02-11T02:44:20.096Z,30.78
2023-02-11T02:45:20.142Z,26.58
2023-02-11T02:46:20.863Z,27.66
2023-02-11T02:47:20.004Z,27.53
2023-02-11T02:48:19.984Z,25.84
2023-02-11T02:49:19.965Z,29.92
2023-02-11T02:50:19.916Z,28.86
2023-02-11T02:51:19.883Z,26.84
2023-02-11T02:52:19.855Z,27.96
2023-02-11T02:53:19.816Z,33.36
2023-02-11T02:54:19.788Z,32.54
2023-02-11T02:55:19.760Z,30.91
2023-02-11T02:56:19.721Z,30.14
2023-02-11T02:57:19.697Z,28.98
2023-02-11T02:58:19.677Z,29.74
2023-02-11T02:59:19.632Z,27.48
2023-02-11T03:00:19.597Z,26.90
2023-02-11T03:01:19.573Z,27.73
2023-02-11T03:02:19.536Z,26.56
2023-02-11T03:03:19.522Z,28.26
2023-02-11T03:04:19.472Z,30.34
2023-02-11T03:05:19.446Z,28.39
2023-02-11T03:06:19.431Z,26.36
2023-02-11T03:07:19.400Z,25.97
2023-02-11T03:08:19.366Z,26.75
2023-02-11T03:09:19.334Z,28.89
2023-02-11T03:10:19.315Z,27.66
2023-02-11T03:11:19.284Z,28.09
2023-02-11T03:12:19.249Z,26.96
2023-02-11T03:13:19.211Z,27.39
2023-02-11T03:14:19.179Z,30.16
2023-02-11T03:15:19.149Z,25.61
2023-02-11T03:16:19.195Z,27.69
2023-02-11T03:17:19.105Z,27.66
2023-02-11T03:18:19.077Z,30.60
2023-02-11T03:19:19.045Z,29.34
2023-02-11T03:21:18.977Z,31.42
2023-02-11T03:22:18.947Z,30.95
2023-02-11T03:23:18.936Z,27.28
2023-02-11T03:24:18.887Z,29.06
2023-02-11T03:25:19.336Z,31.18
2023-02-11T03:26:18.829Z,27.47
2023-02-11T03:27:18.798Z,30.17
2023-02-11T03:28:18.890Z,30.55
2023-02-11T03:29:18.738Z,28.60
2023-02-11T03:30:18.721Z,27.63
2023-02-11T08:52:25.182Z,31.62
2023-02-11T08:53:25.209Z,33.15
2023-02-11T08:54:25.255Z,29.06
2023-02-11T08:55:25.272Z,31.71
2023-02-11T08:56:25.293Z,30.17
2023-02-11T08:57:25.341Z,35.57
2023-02-11T08:58:25.371Z,28.56
2023-02-11T08:59:25.477Z,34.82
2023-02-11T09:00:25.404Z,35.64
2023-02-11T09:01:25.472Z,30.85
2023-02-11T09:02:25.570Z,31.79
2023-02-11T09:03:25.513Z,32.23
2023-02-11T09:04:25.528Z,30.94
2023-02-11T09:05:25.534Z,29.45
2023-02-11T09:06:25.555Z,29.29
2023-02-11T09:07:25.580Z,29.78
2023-02-11T09:08:25.611Z,28.67
2023-02-11T09:09:25.624Z,29.33
2023-02-11T09:10:25.661Z,29.18
2023-02-11T09:11:25.682Z,31.02
2023-02-11T09:12:25.719Z,27.78
2023-02-11T09:13:25.739Z,33.83
2023-02-11T09:14:25.802Z,31.23
2023-02-11T09:15:25.795Z,34.86
2023-02-11T09:16:25.828Z,30.69
2023-02-11T09:17:25.835Z,31.82
2023-02-11T09:18:25.866Z,33.34
2023-02-11T09:19:25.915Z,31.53
2023-02-11T09:20:25.920Z,29.91
2023-02-11T09:21:25.939Z,29.99
2023-02-11T09:22:25.965Z,30.37
2023-02-11T09:23:25.986Z,30.61
2023-02-11T09:25:26.033Z,30.33
2023-02-11T09:26:26.066Z,31.75
2023-02-11T09:27:26.096Z,34.20
2023-02-11T09:28:26.169Z,31.89
2023-02-11T09:29:26.181Z,32.78
2023-02-11T09:30:26.309Z,30.76
2023-02-11T09:31:26.376Z,32.54
2023-02-11T09:33:26.246Z,31.74
2023-02-11T09:34:26.264Z,32.56
2023-02-11T09:35:26.290Z,32.08
2023-02-11T09:36:26.320Z,33.65
2023-02-11T09:37:26.358Z,28.74
2023-02-11T09:38:26.364Z,31.30
2023-02-11T10:10:27.080Z,29.45
2023-02-11T10:11:32.088Z,26.92
2023-02-11T10:13:27.052Z,27.73
2023-02-11T10:14:27.020Z,29.10
2023-02-11T10:15:27.028Z,30.17
2023-02-11T10:16:26.982Z,30.15
2023-02-11T10:17:26.961Z,32.61
2023-02-11T10:18:26.934Z,35.86
2023-02-11T10:19:26.923Z,32.35
2023-02-11T10:20:26.894Z,33.51
2023-02-11T10:21:26.920Z,32.42
2023-02-11T10:22:26.844Z,30.91
2023-02-11T10:23:26.831Z,30.43
2023-02-11T10:24:26.808Z,31.44
2023-02-11T10:25:26.828Z,34.22
2023-02-11T10:26:26.843Z,32.91
2023-02-11T10:27:26.860Z,31.98
2023-02-11T10:28:26.963Z,35.38
2023-02-11T10:29:26.877Z,31.47
2023-02-11T10:30:26.912Z,33.65
2023-02-11T10:31:27.013Z,31.25
2023-02-11T10:32:27.018Z,30.03
2023-02-11T10:33:26.935Z,30.33
2023-02-11T10:34:27.008Z,32.61
2023-02-11T10:35:26.949Z,31.49
2023-02-11T10:36:26.955Z,34.98
2023-02-11T10:37:26.978Z,32.70
2023-02-11T10:38:27.066Z,32.52
2023-02-11T10:39:27.006Z,29.95
2023-02-11T10:40:27.007Z,33.92
2023-02-11T10:41:27.004Z,32.00
2023-02-11T10:42:27.031Z,32.59
2023-02-11T10:43:27.033Z,31.97
2023-02-11T10:44:27.044Z,32.58
2023-02-11T10:45:27.048Z,31.96
2023-02-11T10:46:27.115Z,32.68
2023-02-11T10:47:27.062Z,35.65
2023-02-11T10:48:27.062Z,34.35
2023-02-11T10:49:27.063Z,33.17
2023-02-11T10:50:27.080Z,29.52
2023-02-11T10:51:27.072Z,30.22
2023-02-11T10:52:27.107Z,28.62
2023-02-11T10:53:27.080Z,29.03
2023-02-11T10:54:27.079Z,26.46
2023-02-11T10:55:27.083Z,31.78
2023-02-11T10:56:27.102Z,28.31
2023-02-11T10:57:27.114Z,29.94
2023-02-11T10:58:27.106Z,28.08
2023-02-11T10:59:27.114Z,29.66
2023-02-11T11:00:27.106Z,30.68
2023-02-11T11:01:27.121Z,26.16
2023-02-11T11:02:27.109Z,30.32
2023-02-11T11:03:27.113Z,29.10
2023-02-11T11:04:27.116Z,30.24
2023-02-11T11:05:27.102Z,29.44
2023-02-11T11:06:27.091Z,28.39
2023-02-11T11:07:27.089Z,30.04
2023-02-11T11:08:27.074Z,31.22
2023-02-11T11:09:27.062Z,32.22
2023-02-11T11:10:27.048Z,33.78
2023-02-11T11:11:27.023Z,30.10
2023-02-11T11:12:27.009Z,33.74
2023-02-11T11:13:26.983Z,32.31
2023-02-11T11:14:26.964Z,33.69
2023-02-11T11:15:26.950Z,34.16
2023-02-11T11:16:27.036Z,34.51
2023-02-11T11:17:26.918Z,32.80
2023-02-11T11:18:26.884Z,34.06
2023-02-11T11:19:26.854Z,32.62
2023-02-11T11:20:26.832Z,33.41
2023-02-11T11:21:26.808Z,34.30
2023-02-11T11:22:26.791Z,31.01
2023-02-11T11:23:26.761Z,36.78
2023-02-11T11:24:28.039Z,35.26
2023-02-11T11:25:26.695Z,38.70
2023-02-11T11:26:26.676Z,37.00
2023-02-11T11:27:26.660Z,35.53
2023-02-11T11:28:27.542Z,37.39
2023-02-11T11:29:26.688Z,37.76
2023-02-11T11:30:26.726Z,41.37
2023-02-11T11:31:26.883Z,38.65
2023-02-11T11:32:26.781Z,37.53
2023-02-11T11:33:26.801Z,41.61
2023-02-11T11:34:27.001Z,39.97
2023-02-11T11:35:26.853Z,40.34
2023-02-11T11:36:26.871Z,40.30
2023-02-11T11:37:26.887Z,38.82
2023-02-11T11:38:26.903Z,39.94
2023-02-11T11:39:26.916Z,41.79
2023-02-11T11:40:26.927Z,42.74
2023-02-11T11:41:26.949Z,43.87
2023-02-11T11:42:26.952Z,43.75
2023-02-11T11:43:26.969Z,43.68
2023-02-11T11:44:27.063Z,45.66
2023-02-11T11:45:27.032Z,42.52
2023-02-11T11:46:30.072Z,41.65
2023-02-11T11:47:26.980Z,42.63
2023-02-11T11:48:26.936Z,42.57
2023-02-11T11:49:26.895Z,42.75
2023-02-11T11:50:26.875Z,40.67
2023-02-11T11:51:26.805Z,43.31
2023-02-11T11:52:26.836Z,40.11
2023-02-11T11:53:26.728Z,40.33
2023-02-11T11:54:26.703Z,42.03
2023-02-11T11:55:26.652Z,40.11
2023-02-11T11:56:26.620Z,41.49
2023-02-11T11:57:26.584Z,40.23
2023-02-11T11:58:26.571Z,40.76
2023-02-11T11:59:26.569Z,44.53
2023-02-11T12:00:26.490Z,41.04
2023-02-11T12:01:26.455Z,40.44
2023-02-11T12:02:26.487Z,41.28
2023-02-11T12:03:26.479Z,41.64
2023-02-11T12:04:26.356Z,40.59
2023-02-11T12:05:26.313Z,42.46
2023-02-11T12:06:26.276Z,39.88
2023-02-11T12:07:26.241Z,42.30
2023-02-11T12:08:26.211Z,42.61
2023-02-11T12:09:26.226Z,43.00
2023-02-11T12:10:26.137Z,41.64
2023-02-11T12:11:26.097Z,43.26
2023-02-11T12:12:26.070Z,41.76
2023-02-11T12:13:26.036Z,43.16
2023-02-11T12:14:26.053Z,43.20
2023-02-11T12:15:25.953Z,42.90
2023-02-11T12:16:25.971Z,46.09
2023-02-11T12:17:25.878Z,42.68
2023-02-11T12:18:25.846Z,42.02
2023-02-11T12:19:25.805Z,42.43
2023-02-11T12:20:25.760Z,44.75
2023-02-11T12:21:25.727Z,41.26
2023-02-11T12:22:25.692Z,42.99
2023-02-11T12:23:25.665Z,41.08
2023-02-11T12:24:25.630Z,41.86
2023-02-11T12:25:26.507Z,43.35
2023-02-11T12:26:25.545Z,40.42
2023-02-11T12:27:25.505Z,43.76
2023-02-11T12:28:25.615Z,42.09
2023-02-11T12:29:25.563Z,45.12
2023-02-11T12:30:25.580Z,42.44
2023-02-11T12:31:25.773Z,44.85
2023-02-11T12:32:25.640Z,42.61
2023-02-11T12:33:25.737Z,42.90
2023-02-11T12:34:25.699Z,40.52
2023-02-11T12:35:25.729Z,44.34
2023-02-11T12:36:25.750Z,41.82
2023-02-11T12:37:25.785Z,43.24
2023-02-11T12:38:25.811Z,41.97
2023-02-11T12:39:25.825Z,41.40
2023-02-11T12:40:25.922Z,40.76
2023-02-11T12:41:25.889Z,43.67
2023-02-11T12:42:25.916Z,42.63
2023-02-11T12:43:25.946Z,43.07
2023-02-11T12:44:25.985Z,42.54
2023-02-11T12:45:26.009Z,41.69
2023-02-11T12:46:26.030Z,41.17
2023-02-11T12:47:26.058Z,42.66
2023-02-11T12:48:26.090Z,40.50
2023-02-11T12:49:26.124Z,41.34
2023-02-11T12:50:26.172Z,41.83
2023-02-11T12:51:26.191Z,38.70
2023-02-11T12:52:26.248Z,40.43
2023-02-11T12:53:26.262Z,42.07
2023-02-11T12:54:26.306Z,42.14
2023-02-11T12:55:26.397Z,40.92
2023-02-11T12:56:26.371Z,42.43
2023-02-11T12:57:26.417Z,42.72
2023-02-11T12:58:35.656Z,42.98
2023-02-11T12:59:27.396Z,43.13
2023-02-11T13:00:26.354Z,43.35
2023-02-11T13:01:26.466Z,42.99
2023-02-11T13:02:26.327Z,41.92
2023-02-11T13:03:26.242Z,43.55
2023-02-11T13:04:26.216Z,42.34
2023-02-11T13:05:26.183Z,43.30
2023-02-11T13:06:26.135Z,45.04
2023-02-11T13:07:26.099Z,46.83
2023-02-11T13:08:26.132Z,43.46
2023-02-11T13:09:26.218Z,40.24
2023-02-11T13:10:26.202Z,43.89
2023-02-11T13:11:26.231Z,43.76
2023-02-11T13:12:26.264Z,42.79
2023-02-11T13:13:26.337Z,41.68
2023-02-11T13:14:26.324Z,41.33
2023-02-11T13:15:26.356Z,40.98
2023-02-11T13:16:26.456Z,42.42
2023-02-11T13:17:26.392Z,42.27
2023-02-11T13:18:26.387Z,40.43
2023-02-11T13:19:26.391Z,40.26
2023-02-11T13:20:26.397Z,39.84
2023-02-11T13:21:26.395Z,37.20
2023-02-11T13:22:26.498Z,39.13
2023-02-11T13:23:26.423Z,37.45
2023-02-11T13:24:26.425Z,40.09
2023-02-11T13:25:26.430Z,37.89
2023-02-11T13:26:26.431Z,40.68
2023-02-11T13:27:26.427Z,38.41
2023-02-11T13:28:26.455Z,39.29
2023-02-11T13:29:26.410Z,38.24
2023-02-11T13:30:26.409Z,37.51
2023-02-11T13:31:26.385Z,37.89
2023-02-11T13:32:26.371Z,38.94
2023-02-11T13:33:26.299Z,40.49
2023-02-11T13:34:26.334Z,37.41
2023-02-11T13:35:26.356Z,36.38
2023-02-11T13:36:26.284Z,39.63
2023-02-11T13:37:26.290Z,38.38
2023-02-11T13:38:26.324Z,36.78
2023-02-11T13:39:26.240Z,37.44
2023-02-11T13:40:26.213Z,38.73
2023-02-11T13:41:26.192Z,38.91
2023-02-11T13:42:26.150Z,38.81
2023-02-11T13:43:26.114Z,41.51
2023-02-11T13:44:26.142Z,38.87
2023-02-11T13:45:26.054Z,39.33
2023-02-11T13:46:26.078Z,37.52
2023-02-11T13:47:26.015Z,38.93
2023-02-11T13:48:26.000Z,37.42
2023-02-11T13:49:25.991Z,38.48
2023-02-11T13:50:25.954Z,36.80
2023-02-11T13:51:25.945Z,37.05
2023-02-11T13:52:25.913Z,39.34
2023-02-11T13:53:25.884Z,38.49
2023-02-11T13:54:26.554Z,38.57
2023-02-11T13:55:25.837Z,41.98
2023-02-11T13:56:25.815Z,40.10
2023-02-11T13:57:25.781Z,42.36
2023-02-11T13:58:25.756Z,42.26
2023-02-11T13:59:25.725Z,42.11
2023-02-11T14:00:25.700Z,44.06
2023-02-11T14:01:25.708Z,41.00
2023-02-11T14:02:25.789Z,41.31
2023-02-11T14:03:25.624Z,41.59
2023-02-11T14:04:25.608Z,43.23
2023-02-11T14:05:25.583Z,43.64
2023-02-11T14:06:25.562Z,44.37
2023-02-11T14:07:25.533Z,44.34
2023-02-11T14:08:25.514Z,47.76
2023-02-11T14:09:25.524Z,47.92
2023-02-11T14:10:25.476Z,46.86
2023-02-11T14:11:25.443Z,45.32
2023-02-11T14:12:25.445Z,46.06
2023-02-11T14:13:25.420Z,47.90
2023-02-11T14:14:25.414Z,48.06
2023-02-11T14:15:25.383Z,46.79
2023-02-11T14:16:37.542Z,49.96
2023-02-11T14:17:26.344Z,50.07
2023-02-11T14:18:25.342Z,50.61
2023-02-11T14:19:25.261Z,50.57
2023-02-11T14:20:25.558Z,50.19
2023-02-11T14:21:25.199Z,52.53
2023-02-11T14:22:25.176Z,51.36
2023-02-11T14:23:26.050Z,50.10
2023-02-11T14:29:25.554Z,55.39
2023-02-11T17:31:25.801Z,67.98
2023-02-11T17:41:25.148Z,70.83
2023-02-11T17:42:25.186Z,73.20
2023-02-11T17:43:25.205Z,66.37
2023-02-11T17:44:25.245Z,74.51
2023-02-11T17:45:25.350Z,68.78
2023-02-11T17:46:25.325Z,71.42
2023-02-11T17:47:25.328Z,71.90
2023-02-11T17:48:25.366Z,68.92
2023-02-11T17:49:25.396Z,68.08
2023-02-11T17:50:27.099Z,69.54
2023-02-11T17:51:25.396Z,72.51
2023-02-11T17:52:25.376Z,72.74
2023-02-11T17:53:25.356Z,69.66
2023-02-11T17:54:25.408Z,69.82
2023-02-11T17:55:26.117Z,70.47
2023-02-11T17:56:26.115Z,69.11
2023-02-11T17:57:25.284Z,68.52
2023-02-11T17:58:25.281Z,70.20
2023-02-11T17:59:25.269Z,67.55
2023-02-11T18:00:25.229Z,68.23
2023-02-11T18:01:25.267Z,70.03
2023-02-11T18:02:25.198Z,70.18
2023-02-11T18:03:25.168Z,75.17
2023-02-11T18:04:25.276Z,73.67
2023-02-11T18:05:25.147Z,67.72
2023-02-11T18:10:25.623Z,74.42
2023-02-11T18:39:25.194Z,73.70
2023-02-11T18:40:25.219Z,73.79
2023-02-11T18:41:25.276Z,74.13
2023-02-11T18:42:25.311Z,74.88
2023-02-11T18:43:25.336Z,74.13
2023-02-11T18:44:25.485Z,72.37
2023-02-11T18:45:25.419Z,72.29
2023-02-11T18:46:25.723Z,74.05
2023-02-11T18:47:25.518Z,83.72
2023-02-11T18:48:25.531Z,76.35
2023-02-11T18:49:25.598Z,78.58
2023-02-11T18:50:25.611Z,79.64
2023-02-11T18:51:25.656Z,75.65
2023-02-11T18:52:25.683Z,76.47
2023-02-11T18:53:25.742Z,77.51
2023-02-11T18:54:25.765Z,76.28
2023-02-11T18:55:25.824Z,73.52
2023-02-11T18:56:25.851Z,75.58
2023-02-11T18:57:25.895Z,82.88
2023-02-11T18:58:25.935Z,77.19
2023-02-11T18:59:25.970Z,80.45
2023-02-11T19:00:26.026Z,75.29
2023-02-11T19:01:26.162Z,77.47
2023-02-11T19:02:26.105Z,78.72
2023-02-11T19:03:26.156Z,76.36
2023-02-11T19:04:27.247Z,76.43
2023-02-11T19:05:26.248Z,75.95
2023-02-11T19:06:26.273Z,78.57
2023-02-11T19:07:26.316Z,80.47
2023-02-11T19:08:26.363Z,76.35
2023-02-11T19:09:26.392Z,76.46
2023-02-11T19:10:26.457Z,72.22
2023-02-11T19:11:26.575Z,81.28
2023-02-11T19:12:26.528Z,75.48
2023-02-11T19:13:26.568Z,74.57
2023-02-11T19:14:26.623Z,77.91
2023-02-11T19:15:26.653Z,79.62
2023-02-11T19:16:26.731Z,76.37
2023-02-11T19:17:26.811Z,72.33
2023-02-11T19:18:26.770Z,76.74
2023-02-11T19:19:26.817Z,83.83
2023-02-11T19:20:26.848Z,79.10
2023-02-11T19:21:26.885Z,81.27
2023-02-11T19:22:26.955Z,78.38
2023-02-11T19:23:26.985Z,80.20
2023-02-11T19:24:27.021Z,83.03
2023-02-11T19:25:27.132Z,79.49
2023-02-11T19:26:27.098Z,82.56
2023-02-11T19:27:27.181Z,82.70
2023-02-11T19:28:27.208Z,85.78
2023-02-11T19:29:27.233Z,82.69
2023-02-11T19:30:27.281Z,82.03
2023-02-11T19:31:27.389Z,77.71
2023-02-11T19:32:27.352Z,81.26
2023-02-11T19:33:27.388Z,82.96
2023-02-11T19:34:28.221Z,79.42
2023-02-11T19:35:27.477Z,78.35
2023-02-11T19:36:27.536Z,82.30
2023-02-11T19:37:27.564Z,76.73
2023-02-11T19:38:27.590Z,76.63
2023-02-11T19:39:27.609Z,80.69
2023-02-11T19:40:27.647Z,78.85
2023-02-11T19:41:27.709Z,80.52
2023-02-11T19:42:27.867Z,80.84
2023-02-11T19:43:27.803Z,81.43
2023-02-11T19:44:27.907Z,77.29
2023-02-11T19:45:27.872Z,77.09
2023-02-11T19:46:27.972Z,77.12
2023-02-11T19:47:28.080Z,76.91
2023-02-11T19:48:28.000Z,78.51
2023-02-11T19:49:28.039Z,75.62
2023-02-11T19:50:28.088Z,79.49
2023-02-11T19:51:28.125Z,79.08
2023-02-11T19:52:28.190Z,77.48
2023-02-11T19:53:28.213Z,81.15
2023-02-11T19:54:28.267Z,82.58
2023-02-11T19:55:28.295Z,80.53
2023-02-11T19:56:28.353Z,82.18
2023-02-11T19:57:28.389Z,85.59
2023-02-11T19:58:28.514Z,85.85
2023-02-11T19:59:28.476Z,81.51
2023-02-11T20:00:28.507Z,80.41
2023-02-11T20:01:28.574Z,80.23
2023-02-11T20:06:28.825Z,81.31
2023-02-11T20:17:29.235Z,84.03
2023-02-11T21:42:32.977Z,87.73
2023-02-11T22:33:35.150Z,86.75
2023-02-11T22:34:35.177Z,89.34
2023-02-11T22:35:35.213Z,90.57
2023-02-11T22:36:35.248Z,88.41
2023-02-11T22:37:35.283Z,89.65
2023-02-11T22:38:35.406Z,85.89
2023-02-11T22:39:35.386Z,81.08
2023-02-11T22:40:35.423Z,88.54
2023-02-11T22:41:35.447Z,87.72
2023-02-11T22:42:35.498Z,89.40
2023-02-11T22:43:35.520Z,88.18
2023-02-11T22:44:35.556Z,90.04
2023-02-11T22:45:35.738Z,89.35
2023-02-11T22:46:35.606Z,89.96
2023-02-11T22:47:35.649Z,88.96
2023-02-11T22:48:35.692Z,91.19
2023-02-11T22:49:36.715Z,87.69
2023-02-11T22:50:35.785Z,88.79
2023-02-11T22:51:35.929Z,90.06
2023-02-11T22:52:35.898Z,89.54
2023-02-11T22:53:35.899Z,86.42
2023-02-11T22:54:35.932Z,89.14
2023-02-11T22:55:35.980Z,90.18
2023-02-11T22:56:36.031Z,90.56
2023-02-11T22:57:36.044Z,85.60
2023-02-11T22:58:36.087Z,92.07
2023-02-11T22:59:36.112Z,87.09
2023-02-11T23:00:36.225Z,88.60
2023-02-11T23:01:36.296Z,89.63
2023-02-11T23:02:36.302Z,88.68
2023-02-11T23:03:36.296Z,91.40
2023-02-11T23:04:36.344Z,94.57
2023-02-11T23:05:36.414Z,90.60
2023-02-11T23:06:36.445Z,89.21
2023-02-11T23:07:36.497Z,88.31
2023-02-11T23:08:36.539Z,92.60
2023-02-11T23:09:36.580Z,91.03
2023-02-11T23:10:36.699Z,92.55
2023-02-11T23:11:36.681Z,90.36
2023-02-11T23:12:36.815Z,90.93
2023-02-11T23:13:36.792Z,89.93
2023-02-11T23:14:36.792Z,89.13
2023-02-11T23:15:36.836Z,89.40
2023-02-11T23:16:36.962Z,91.84
2023-02-11T23:17:36.920Z,91.10
2023-02-11T23:18:36.958Z,91.91
2023-02-11T23:19:36.952Z,92.54
2023-02-11T23:20:36.969Z,90.59
2023-02-11T23:21:37.004Z,91.60
2023-02-11T23:22:37.037Z,90.29
2023-02-11T23:23:37.092Z,89.10
2023-02-11T23:24:37.205Z,86.27
2023-02-11T23:25:37.199Z,89.62
2023-02-11T23:26:37.221Z,92.97
2023-02-11T23:27:37.261Z,91.74
2023-02-11T23:28:37.425Z,90.60
2023-02-11T23:29:37.377Z,91.18
2023-02-11T23:30:37.421Z,89.37
2023-02-11T23:31:37.630Z,90.29
2023-02-11T23:32:37.496Z,93.36
2023-02-11T23:33:37.518Z,88.45
2023-02-11T23:34:37.576Z,90.63
2023-02-11T23:35:37.641Z,93.15
2023-02-11T23:36:37.699Z,92.15
2023-02-11T23:37:37.714Z,90.85
2023-02-11T23:38:37.756Z,90.32
2023-02-11T23:39:37.804Z,93.54
2023-02-11T23:40:37.848Z,88.90
2023-02-11T23:41:37.889Z,90.20
2023-02-11T23:42:37.937Z,91.76
2023-02-11T23:43:37.987Z,90.95
2023-02-11T23:44:38.007Z,90.65
2023-02-11T23:45:38.123Z,87.18
2023-02-11T23:46:38.026Z,88.65
2023-02-11T23:47:38.057Z,90.90
2023-02-11T23:48:38.097Z,94.11
2023-02-11T23:49:38.113Z,91.11
2023-02-11T23:50:38.165Z,91.81
2023-02-11T23:51:38.206Z,94.64
2023-02-11T23:52:38.252Z,91.66
2023-02-11T23:53:38.276Z,92.75
2023-02-11T23:54:38.302Z,88.07
2023-02-11T23:55:38.336Z,94.22
2023-02-11T23:56:38.351Z,92.08
2023-02-11T23:57:38.365Z,91.27
2023-02-11T23:58:38.474Z,90.80
2023-02-11T23:59:38.438Z,94.48
